Flaxville, MT (59222)

11:15 AM MDT on July 06, 2015 (GMT -0600)
APRSWXNET | | Change Station
CLOSE
Current Station
Personal Weather Station
Location: Flaxville, MT
Elevation: 2254 ft
Nearby Weather Stations

Elev 2254 ft 48.52 °N, 105.38 °W | Updated 26 minutes ago

Partly Cloudy
Partly Cloudy
64 °F
Feels Like 64 °F
N
2
Wind Variable Wind from NW
Gusts 0.0 mph

Today
High -- | Low -- °F
--% Chance of Precip.
Yesterday
High -- | Low -- °F
Precip. -- in
5:05 AM 9:04 PM
Waning Gibbous, 74% visible
Pressure 30.20 in
Visibility 4.0 miles
Clouds Scattered Clouds 3800 ft
Dew Point 49 °F
Humidity 59%
Rainfall in
Snow Depth Not available.
UV 7 out of 12
Pollen 4.40 out of 12
Air Quality Not available.
Flu Activity Not available.
METAR KOLF 061653Z AUTO 31007KT 4SM HZ SCT038 21/09 A3021 RMK AO2 SLP227 T02060094

More Conditions Fewer Conditions

Pressure 30.20 in
Visibility 4.0 miles
Clouds Scattered Clouds 3800 ft
Dew Point 49 °F
Humidity 59%
Rainfall in
Snow Depth Not available.
UV 7 out of 12
Pollen 4.40 out of 12
Air Quality Not available.
Flu Activity Not available.
METAR KOLF 061653Z AUTO 31007KT 4SM HZ SCT038 21/09 A3021 RMK AO2 SLP227 T02060094

More Conditions Fewer Conditions

10-Day Weather Forecast

×

Almanac

Astronomy

Jul. 06, 2015 Rise Set
Actual Time
Civil Twilight
Nautical Twilight
Astronomical Twilight
Moon
Length of Visible Light
Length of Day
Tomorrow will be .
, % of the Moon is Illuminated

Today's Extremes

State Highs State Lows

Community

WunderPhotos

Upload Photos

1,835,604 photos uploaded!

WunderBlogs® & News

Nearby

Air Quality

  Air Quality AQ Index Pollutant
Not available.

Snow Depth

Station Depth Elevation

Earthquake Activity

City Distance Mag. Time & Date
Minimum magnitude displayed is 2.5.

Coastal Water Temperatures

Place Temperature

Stations

Nearby Weather Stations

Station Location Temp. Windchill Dew Point Humidity Wind Precip. Elev Updated Type